Jackson, Montana
Current Conditions -  °F | °C
As of 6:53 PM on Wednesday 22 Oct 2014 (Local Time) from KDLN Reporting Station
Clear Clear  
Wind Chill:   Ceiling: Unl
Heat Index:   Visibility: 10mi
Dew Point: -1°   Wind: 8mph
Humidity: 52%   Direction: 160°SSE
Pressure: 30.04"   Gusts: NA
Location:  45.37°N, 113.41°W
Report Text: KDLN 230053Z AUTO 16007KT 10SM CLR 08/M01 A3004 RMK AO2 SLP175 T00831011
Loading
Personal Weather Stations






























Interactive Weather Map
Tropical Storm Tracking
New forecast layout! Learn more

10-Day Weather Forecast

Advertisements
Track Severe Weather on mobile